Weather at Cabool Memorial Airport

Public forecast

Using degrees Fahrenheit for public forecast. Weather courtesy of forecast.io.

Closest aviation weather report (METAR) to Cabool Memorial Airport

Closest report is West Plains Municipal Airport, 17.6 nm (32.5 km) SSE. Retrieved 2022/08/09 15:53 UTC (1 hour ago):

KUNO 091553Z AUTO 00000KT 10SM CLR 29/20 A3012 RMK AO2 SLP184 T02890200

Closest aviation forecast (TAF) to Cabool Memorial Airport

Closest forecast is Ozark Regional Airport, 49.5 nm (91.6 km) SSW. Retrieved 2022/08/09 12:36 UTC (4 hours ago):

TAF KBPK 091136Z 0912/1012 VRB03KT P6SM VCSH SCT080 BKN120 TEMPO 0912/0916 5SM -TSRA BR BKN035CB FM091600 23006KT P6SM VCTS SCT050CB OVC080 TEMPO 0917/0921 4SM TSRA BR OVC025CB FM092300 VRB03KT P6SM OVC120 FM100800 VRB02KT P6SM VCSH SCT005 BKN040 OVC120